sensor_id;sensor_type;location;lat;lon;timestamp;temperature;humidity
21271;DHT22;10795;50.796;3.860;2022-11-20T00:00:44;4.70;99.90
21271;DHT22;10795;50.796;3.860;2022-11-20T00:03:09;4.60;99.90
21271;DHT22;10795;50.796;3.860;2022-11-20T00:05:35;4.60;99.90
21271;DHT22;10795;50.796;3.860;2022-11-20T00:08:01;4.60;99.90
21271;DHT22;10795;50.796;3.860;2022-11-20T00:10:27;4.70;99.90
21271;DHT22;10795;50.796;3.860;2022-11-20T00:12:52;4.60;99.90
21271;DHT22;10795;50.796;3.860;2022-11-20T00:15:18;4.60;99.90
21271;DHT22;10795;50.796;3.860;2022-11-20T00:17:44;4.70;99.90
21271;DHT22;10795;50.796;3.860;2022-11-20T00:20:10;4.60;99.90
21271;DHT22;10795;50.796;3.860;2022-11-20T00:22:36;4.70;99.90
21271;DHT22;10795;50.796;3.860;2022-11-20T00:25:02;4.70;99.90
21271;DHT22;10795;50.796;3.860;2022-11-20T00:27:28;4.70;99.90
21271;DHT22;10795;50.796;3.860;2022-11-20T00:29:53;4.90;99.90
21271;DHT22;10795;50.796;3.860;2022-11-20T00:32:19;5.30;99.90
21271;DHT22;10795;50.796;3.860;2022-11-20T00:34:45;5.10;99.90
21271;DHT22;10795;50.796;3.860;2022-11-20T00:37:11;5.00;99.90
21271;DHT22;10795;50.796;3.860;2022-11-20T00:39:36;4.90;99.90
21271;DHT22;10795;50.796;3.860;2022-11-20T00:42:02;4.80;99.90
21271;DHT22;10795;50.796;3.860;2022-11-20T00:44:28;4.80;99.90
21271;DHT22;10795;50.796;3.860;2022-11-20T00:46:53;4.70;99.90
21271;DHT22;10795;50.796;3.860;2022-11-20T00:49:19;4.70;99.90
21271;DHT22;10795;50.796;3.860;2022-11-20T00:51:45;4.70;99.90
21271;DHT22;10795;50.796;3.860;2022-11-20T00:54:10;4.80;99.90
21271;DHT22;10795;50.796;3.860;2022-11-20T00:56:36;4.90;99.90
21271;DHT22;10795;50.796;3.860;2022-11-20T00:59:02;5.30;99.90
21271;DHT22;10795;50.796;3.860;2022-11-20T01:01:28;5.80;99.90
21271;DHT22;10795;50.796;3.860;2022-11-20T01:03:59;5.30;99.90
21271;DHT22;10795;50.796;3.860;2022-11-20T01:06:36;5.00;99.90
21271;DHT22;10795;50.796;3.860;2022-11-20T01:09:09;4.90;99.90
21271;DHT22;10795;50.796;3.860;2022-11-20T01:11:38;4.80;99.90
21271;DHT22;10795;50.796;3.860;2022-11-20T01:14:07;4.70;99.90
21271;DHT22;10795;50.796;3.860;2022-11-20T01:16:37;4.80;99.90
21271;DHT22;10795;50.796;3.860;2022-11-20T01:19:06;4.80;99.90
21271;DHT22;10795;50.796;3.860;2022-11-20T01:21:34;4.90;99.90
21271;DHT22;10795;50.796;3.860;2022-11-20T01:24:02;5.00;99.90
21271;DHT22;10795;50.796;3.860;2022-11-20T01:26:31;4.90;99.90
21271;DHT22;10795;50.796;3.860;2022-11-20T01:28:59;4.90;99.90
21271;DHT22;10795;50.796;3.860;2022-11-20T01:31:30;4.90;99.90
21271;DHT22;10795;50.796;3.860;2022-11-20T01:33:58;5.00;99.90
21271;DHT22;10795;50.796;3.860;2022-11-20T01:36:27;4.90;99.90
21271;DHT22;10795;50.796;3.860;2022-11-20T01:38:54;4.90;99.90
21271;DHT22;10795;50.796;3.860;2022-11-20T01:41:21;4.90;99.90
21271;DHT22;10795;50.796;3.860;2022-11-20T01:44:15;4.90;99.90
21271;DHT22;10795;50.796;3.860;2022-11-20T01:47:02;4.70;99.90
21271;DHT22;10795;50.796;3.860;2022-11-20T01:49:37;4.80;99.90
21271;DHT22;10795;50.796;3.860;2022-11-20T01:52:10;4.90;99.90
21271;DHT22;10795;50.796;3.860;2022-11-20T01:54:47;4.90;99.90
21271;DHT22;10795;50.796;3.860;2022-11-20T01:57:14;4.90;99.90
21271;DHT22;10795;50.796;3.860;2022-11-20T01:59:46;4.90;99.90
21271;DHT22;10795;50.796;3.860;2022-11-20T02:02:17;4.80;99.90
21271;DHT22;10795;50.796;3.860;2022-11-20T02:04:44;5.00;99.90
21271;DHT22;10795;50.796;3.860;2022-11-20T02:07:10;4.90;99.90
21271;DHT22;10795;50.796;3.860;2022-11-20T02:09:36;5.00;99.90
21271;DHT22;10795;50.796;3.860;2022-11-20T02:12:03;5.00;99.90
21271;DHT22;10795;50.796;3.860;2022-11-20T02:14:29;5.00;99.90
21271;DHT22;10795;50.796;3.860;2022-11-20T02:16:55;5.00;99.90
21271;DHT22;10795;50.796;3.860;2022-11-20T02:22:05;5.10;99.90
21271;DHT22;10795;50.796;3.860;2022-11-20T02:24:33;5.10;99.90
21271;DHT22;10795;50.796;3.860;2022-11-20T02:27:09;4.90;99.90
21271;DHT22;10795;50.796;3.860;2022-11-20T02:29:45;5.00;99.90
21271;DHT22;10795;50.796;3.860;2022-11-20T02:32:26;4.90;99.90
21271;DHT22;10795;50.796;3.860;2022-11-20T02:34:52;4.80;99.90
21271;DHT22;10795;50.796;3.860;2022-11-20T02:37:20;5.20;99.90
21271;DHT22;10795;50.796;3.860;2022-11-20T02:39:50;5.10;99.90
21271;DHT22;10795;50.796;3.860;2022-11-20T02:42:16;4.90;99.90
21271;DHT22;10795;50.796;3.860;2022-11-20T02:44:42;5.30;99.90
21271;DHT22;10795;50.796;3.860;2022-11-20T02:47:08;5.30;99.90
21271;DHT22;10795;50.796;3.860;2022-11-20T02:49:34;5.40;99.90
21271;DHT22;10795;50.796;3.860;2022-11-20T02:52:00;5.30;99.90
21271;DHT22;10795;50.796;3.860;2022-11-20T02:54:26;5.20;99.90
21271;DHT22;10795;50.796;3.860;2022-11-20T02:56:52;5.10;99.90
21271;DHT22;10795;50.796;3.860;2022-11-20T02:59:18;5.10;99.90
21271;DHT22;10795;50.796;3.860;2022-11-20T03:01:43;5.00;99.90
21271;DHT22;10795;50.796;3.860;2022-11-20T03:04:09;4.90;99.90
21271;DHT22;10795;50.796;3.860;2022-11-20T03:06:35;5.20;99.90
21271;DHT22;10795;50.796;3.860;2022-11-20T03:09:01;5.40;99.90
21271;DHT22;10795;50.796;3.860;2022-11-20T03:11:26;5.50;99.90
21271;DHT22;10795;50.796;3.860;2022-11-20T03:13:52;5.20;99.90
21271;DHT22;10795;50.796;3.860;2022-11-20T03:16:20;5.10;99.90
21271;DHT22;10795;50.796;3.860;2022-11-20T03:18:46;5.20;99.90
21271;DHT22;10795;50.796;3.860;2022-11-20T03:21:13;5.40;99.90
21271;DHT22;10795;50.796;3.860;2022-11-20T03:23:40;5.50;99.90
21271;DHT22;10795;50.796;3.860;2022-11-20T03:26:19;5.40;99.90
21271;DHT22;10795;50.796;3.860;2022-11-20T03:28:50;5.30;99.90
21271;DHT22;10795;50.796;3.860;2022-11-20T03:31:18;5.20;99.90
21271;DHT22;10795;50.796;3.860;2022-11-20T03:33:44;5.10;99.90
21271;DHT22;10795;50.796;3.860;2022-11-20T03:36:12;5.20;99.90
21271;DHT22;10795;50.796;3.860;2022-11-20T03:38:38;5.40;99.90
21271;DHT22;10795;50.796;3.860;2022-11-20T03:41:09;5.40;99.90
21271;DHT22;10795;50.796;3.860;2022-11-20T03:43:36;5.30;99.90
21271;DHT22;10795;50.796;3.860;2022-11-20T03:46:02;5.10;99.90
21271;DHT22;10795;50.796;3.860;2022-11-20T03:48:29;5.00;99.90
21271;DHT22;10795;50.796;3.860;2022-11-20T03:51:28;5.10;99.90
21271;DHT22;10795;50.796;3.860;2022-11-20T03:53:59;5.00;99.90
21271;DHT22;10795;50.796;3.860;2022-11-20T03:56:36;5.00;99.90
21271;DHT22;10795;50.796;3.860;2022-11-20T03:59:03;4.90;99.90
21271;DHT22;10795;50.796;3.860;2022-11-20T04:01:34;5.00;99.90
21271;DHT22;10795;50.796;3.860;2022-11-20T04:04:01;5.00;99.90
21271;DHT22;10795;50.796;3.860;2022-11-20T04:06:35;5.00;99.90
21271;DHT22;10795;50.796;3.860;2022-11-20T04:09:01;4.90;99.90
21271;DHT22;10795;50.796;3.860;2022-11-20T04:11:29;4.90;99.90
21271;DHT22;10795;50.796;3.860;2022-11-20T04:14:00;5.10;99.90
21271;DHT22;10795;50.796;3.860;2022-11-20T04:16:29;5.30;99.90
21271;DHT22;10795;50.796;3.860;2022-11-20T04:18:57;4.90;99.90
21271;DHT22;10795;50.796;3.860;2022-11-20T04:21:24;5.00;99.90
21271;DHT22;10795;50.796;3.860;2022-11-20T04:23:51;4.90;99.90
21271;DHT22;10795;50.796;3.860;2022-11-20T04:26:18;4.90;99.90
21271;DHT22;10795;50.796;3.860;2022-11-20T04:28:44;5.00;99.90
21271;DHT22;10795;50.796;3.860;2022-11-20T04:31:13;5.00;99.90
21271;DHT22;10795;50.796;3.860;2022-11-20T04:33:40;5.40;99.90
21271;DHT22;10795;50.796;3.860;2022-11-20T04:38:42;5.40;99.90
21271;DHT22;10795;50.796;3.860;2022-11-20T04:41:17;5.50;99.90
21271;DHT22;10795;50.796;3.860;2022-11-20T04:43:48;5.50;99.90
21271;DHT22;10795;50.796;3.860;2022-11-20T04:46:15;5.30;99.90
21271;DHT22;10795;50.796;3.860;2022-11-20T04:48:41;5.20;99.90
21271;DHT22;10795;50.796;3.860;2022-11-20T04:51:07;5.40;99.90
21271;DHT22;10795;50.796;3.860;2022-11-20T04:53:32;5.50;99.90
21271;DHT22;10795;50.796;3.860;2022-11-20T04:56:16;5.50;99.90
21271;DHT22;10795;50.796;3.860;2022-11-20T04:58:42;5.80;99.90
21271;DHT22;10795;50.796;3.860;2022-11-20T05:01:16;5.60;99.90
21271;DHT22;10795;50.796;3.860;2022-11-20T05:03:44;5.60;99.90
21271;DHT22;10795;50.796;3.860;2022-11-20T05:06:12;5.50;99.90
21271;DHT22;10795;50.796;3.860;2022-11-20T05:08:38;5.50;99.90
21271;DHT22;10795;50.796;3.860;2022-11-20T05:11:07;5.20;99.90
21271;DHT22;10795;50.796;3.860;2022-11-20T05:13:33;5.10;99.90
21271;DHT22;10795;50.796;3.860;2022-11-20T05:16:07;5.30;99.90
21271;DHT22;10795;50.796;3.860;2022-11-20T05:18:34;5.20;99.90
21271;DHT22;10795;50.796;3.860;2022-11-20T05:21:00;5.30;99.90
21271;DHT22;10795;50.796;3.860;2022-11-20T05:23:26;5.30;99.90
21271;DHT22;10795;50.796;3.860;2022-11-20T05:25:53;5.20;99.90
21271;DHT22;10795;50.796;3.860;2022-11-20T05:28:20;5.30;99.90
21271;DHT22;10795;50.796;3.860;2022-11-20T05:30:46;5.10;99.90
21271;DHT22;10795;50.796;3.860;2022-11-20T05:33:11;5.10;99.90
21271;DHT22;10795;50.796;3.860;2022-11-20T05:35:37;5.10;99.90
21271;DHT22;10795;50.796;3.860;2022-11-20T05:38:03;5.10;99.90
21271;DHT22;10795;50.796;3.860;2022-11-20T05:40:28;5.40;99.90
21271;DHT22;10795;50.796;3.860;2022-11-20T05:42:54;5.50;99.90
21271;DHT22;10795;50.796;3.860;2022-11-20T05:45:20;5.40;99.90
21271;DHT22;10795;50.796;3.860;2022-11-20T05:47:46;5.40;99.90
21271;DHT22;10795;50.796;3.860;2022-11-20T05:50:11;5.20;99.90
21271;DHT22;10795;50.796;3.860;2022-11-20T05:52:37;5.50;99.90
21271;DHT22;10795;50.796;3.860;2022-11-20T05:55:03;5.50;99.90
21271;DHT22;10795;50.796;3.860;2022-11-20T05:57:30;5.40;99.90
21271;DHT22;10795;50.796;3.860;2022-11-20T05:59:56;5.30;99.90
21271;DHT22;10795;50.796;3.860;2022-11-20T06:02:22;5.40;99.90
21271;DHT22;10795;50.796;3.860;2022-11-20T06:04:47;5.30;99.90
21271;DHT22;10795;50.796;3.860;2022-11-20T06:07:13;5.30;99.90
21271;DHT22;10795;50.796;3.860;2022-11-20T06:09:39;5.30;99.90
21271;DHT22;10795;50.796;3.860;2022-11-20T06:12:05;5.20;99.90
21271;DHT22;10795;50.796;3.860;2022-11-20T06:14:31;5.20;99.90
21271;DHT22;10795;50.796;3.860;2022-11-20T06:16:57;5.40;99.90
21271;DHT22;10795;50.796;3.860;2022-11-20T06:19:22;5.40;99.90
21271;DHT22;10795;50.796;3.860;2022-11-20T06:21:49;5.20;99.90
21271;DHT22;10795;50.796;3.860;2022-11-20T06:24:15;5.30;99.90
21271;DHT22;10795;50.796;3.860;2022-11-20T06:26:41;5.30;99.90
21271;DHT22;10795;50.796;3.860;2022-11-20T06:29:07;5.20;99.90
21271;DHT22;10795;50.796;3.860;2022-11-20T06:31:33;5.30;99.90
21271;DHT22;10795;50.796;3.860;2022-11-20T06:34:01;5.30;99.90
21271;DHT22;10795;50.796;3.860;2022-11-20T06:36:26;5.30;99.90
21271;DHT22;10795;50.796;3.860;2022-11-20T06:38:52;5.30;99.90
21271;DHT22;10795;50.796;3.860;2022-11-20T06:41:21;5.30;99.90
21271;DHT22;10795;50.796;3.860;2022-11-20T06:43:47;5.20;99.90
21271;DHT22;10795;50.796;3.860;2022-11-20T06:46:14;5.10;99.90
21271;DHT22;10795;50.796;3.860;2022-11-20T06:48:42;5.00;99.90
21271;DHT22;10795;50.796;3.860;2022-11-20T06:51:08;5.00;99.90
21271;DHT22;10795;50.796;3.860;2022-11-20T06:53:35;5.00;99.90
21271;DHT22;10795;50.796;3.860;2022-11-20T06:56:01;5.00;99.90
21271;DHT22;10795;50.796;3.860;2022-11-20T06:58:28;5.00;99.90
21271;DHT22;10795;50.796;3.860;2022-11-20T07:00:57;5.20;99.90
21271;DHT22;10795;50.796;3.860;2022-11-20T07:03:24;5.10;99.90
21271;DHT22;10795;50.796;3.860;2022-11-20T07:05:49;5.20;99.90
21271;DHT22;10795;50.796;3.860;2022-11-20T07:08:15;5.30;99.90
21271;DHT22;10795;50.796;3.860;2022-11-20T07:10:41;5.40;99.90
21271;DHT22;10795;50.796;3.860;2022-11-20T07:13:06;5.50;99.90
21271;DHT22;10795;50.796;3.860;2022-11-20T07:15:32;5.30;99.90
21271;DHT22;10795;50.796;3.860;2022-11-20T07:17:59;5.30;99.90
21271;DHT22;10795;50.796;3.860;2022-11-20T07:20:25;5.40;99.90
21271;DHT22;10795;50.796;3.860;2022-11-20T07:22:57;5.40;99.90
21271;DHT22;10795;50.796;3.860;2022-11-20T07:25:24;5.30;99.90
21271;DHT22;10795;50.796;3.860;2022-11-20T07:27:49;5.40;99.90
21271;DHT22;10795;50.796;3.860;2022-11-20T07:30:16;5.50;99.90
21271;DHT22;10795;50.796;3.860;2022-11-20T07:32:42;5.60;99.90
21271;DHT22;10795;50.796;3.860;2022-11-20T07:35:08;5.50;99.90
21271;DHT22;10795;50.796;3.860;2022-11-20T07:37:34;5.70;99.90
21271;DHT22;10795;50.796;3.860;2022-11-20T07:40:00;5.70;99.90
21271;DHT22;10795;50.796;3.860;2022-11-20T07:42:26;5.70;99.90
21271;DHT22;10795;50.796;3.860;2022-11-20T07:44:51;5.80;99.90
21271;DHT22;10795;50.796;3.860;2022-11-20T07:47:17;5.80;99.90
21271;DHT22;10795;50.796;3.860;2022-11-20T07:49:43;5.80;99.90
21271;DHT22;10795;50.796;3.860;2022-11-20T07:52:08;5.70;99.90
21271;DHT22;10795;50.796;3.860;2022-11-20T07:54:34;5.50;99.90
21271;DHT22;10795;50.796;3.860;2022-11-20T07:57:00;5.40;99.90
21271;DHT22;10795;50.796;3.860;2022-11-20T07:59:25;5.50;99.90
21271;DHT22;10795;50.796;3.860;2022-11-20T08:01:51;5.70;99.90
21271;DHT22;10795;50.796;3.860;2022-11-20T08:04:17;5.70;99.90
21271;DHT22;10795;50.796;3.860;2022-11-20T08:06:43;5.70;99.90
21271;DHT22;10795;50.796;3.860;2022-11-20T08:09:08;5.80;99.90
21271;DHT22;10795;50.796;3.860;2022-11-20T08:11:35;5.80;99.90
21271;DHT22;10795;50.796;3.860;2022-11-20T08:14:19;5.80;99.90
21271;DHT22;10795;50.796;3.860;2022-11-20T08:16:46;5.90;99.90
21271;DHT22;10795;50.796;3.860;2022-11-20T08:19:14;6.00;99.90
21271;DHT22;10795;50.796;3.860;2022-11-20T08:21:40;6.00;99.90
21271;DHT22;10795;50.796;3.860;2022-11-20T08:24:07;5.90;99.90
21271;DHT22;10795;50.796;3.860;2022-11-20T08:26:33;5.90;99.90
21271;DHT22;10795;50.796;3.860;2022-11-20T08:28:59;6.00;99.90
21271;DHT22;10795;50.796;3.860;2022-11-20T08:31:26;6.20;99.90
21271;DHT22;10795;50.796;3.860;2022-11-20T08:33:52;6.20;99.90
21271;DHT22;10795;50.796;3.860;2022-11-20T08:36:19;6.30;99.90
21271;DHT22;10795;50.796;3.860;2022-11-20T08:38:52;6.10;99.90
21271;DHT22;10795;50.796;3.860;2022-11-20T08:41:18;6.20;99.90
21271;DHT22;10795;50.796;3.860;2022-11-20T08:43:55;6.30;99.90
21271;DHT22;10795;50.796;3.860;2022-11-20T08:46:26;6.30;99.90
21271;DHT22;10795;50.796;3.860;2022-11-20T08:48:52;6.40;99.90
21271;DHT22;10795;50.796;3.860;2022-11-20T08:51:19;6.30;99.90
21271;DHT22;10795;50.796;3.860;2022-11-20T08:53:45;6.40;99.90
21271;DHT22;10795;50.796;3.860;2022-11-20T08:56:11;6.60;99.90
21271;DHT22;10795;50.796;3.860;2022-11-20T08:58:38;6.50;99.90
21271;DHT22;10795;50.796;3.860;2022-11-20T09:01:04;6.50;99.90
21271;DHT22;10795;50.796;3.860;2022-11-20T09:03:30;6.50;99.90
21271;DHT22;10795;50.796;3.860;2022-11-20T09:05:58;6.50;99.90
21271;DHT22;10795;50.796;3.860;2022-11-20T09:08:24;6.50;99.90
21271;DHT22;10795;50.796;3.860;2022-11-20T09:10:54;6.50;99.90
21271;DHT22;10795;50.796;3.860;2022-11-20T09:13:20;6.60;99.90
21271;DHT22;10795;50.796;3.860;2022-11-20T09:15:46;6.60;99.90
21271;DHT22;10795;50.796;3.860;2022-11-20T09:18:12;6.80;99.90
21271;DHT22;10795;50.796;3.860;2022-11-20T09:20:38;6.80;99.90
21271;DHT22;10795;50.796;3.860;2022-11-20T09:23:04;6.80;99.90
21271;DHT22;10795;50.796;3.860;2022-11-20T09:25:30;6.90;99.90
21271;DHT22;10795;50.796;3.860;2022-11-20T09:27:57;6.90;99.90
21271;DHT22;10795;50.796;3.860;2022-11-20T09:30:23;7.00;99.90
21271;DHT22;10795;50.796;3.860;2022-11-20T09:32:48;7.00;99.90
21271;DHT22;10795;50.796;3.860;2022-11-20T09:35:14;7.10;99.90
21271;DHT22;10795;50.796;3.860;2022-11-20T09:37:40;7.10;99.90
21271;DHT22;10795;50.796;3.860;2022-11-20T09:40:08;7.20;99.90
21271;DHT22;10795;50.796;3.860;2022-11-20T09:48:25;7.50;99.90
21271;DHT22;10795;50.796;3.860;2022-11-20T09:55:52;7.70;99.90
21271;DHT22;10795;50.796;3.860;2022-11-20T10:01:12;7.80;99.90
21271;DHT22;10795;50.796;3.860;2022-11-20T10:04:18;7.90;99.90
21271;DHT22;10795;50.796;3.860;2022-11-20T10:07:04;7.90;99.90
21271;DHT22;10795;50.796;3.860;2022-11-20T10:09:35;7.90;99.90
21271;DHT22;10795;50.796;3.860;2022-11-20T10:20:17;8.30;99.90
21271;DHT22;10795;50.796;3.860;2022-11-20T10:25:20;8.30;99.90
21271;DHT22;10795;50.796;3.860;2022-11-20T10:27:59;8.20;99.90
21271;DHT22;10795;50.796;3.860;2022-11-20T10:30:26;8.30;99.90
21271;DHT22;10795;50.796;3.860;2022-11-20T10:32:54;8.40;99.90
21271;DHT22;10795;50.796;3.860;2022-11-20T10:37:50;8.50;99.90
21271;DHT22;10795;50.796;3.860;2022-11-20T10:54:50;8.70;99.90
21271;DHT22;10795;50.796;3.860;2022-11-20T11:02:17;8.30;99.90
21271;DHT22;10795;50.796;3.860;2022-11-20T11:04:44;8.40;99.90
21271;DHT22;10795;50.796;3.860;2022-11-20T11:09:38;8.40;99.90
21271;DHT22;10795;50.796;3.860;2022-11-20T11:12:08;8.50;99.90
21271;DHT22;10795;50.796;3.860;2022-11-20T11:14:50;8.40;99.90
21271;DHT22;10795;50.796;3.860;2022-11-20T11:17:34;8.30;99.90
21271;DHT22;10795;50.796;3.860;2022-11-20T11:20:16;8.20;99.90
21271;DHT22;10795;50.796;3.860;2022-11-20T11:22:44;8.30;99.90
21271;DHT22;10795;50.796;3.860;2022-11-20T11:27:48;8.50;99.90
21271;DHT22;10795;50.796;3.860;2022-11-20T11:30:15;8.50;99.90
21271;DHT22;10795;50.796;3.860;2022-11-20T11:32:41;8.50;99.90
21271;DHT22;10795;50.796;3.860;2022-11-20T11:37:45;8.50;99.90
21271;DHT22;10795;50.796;3.860;2022-11-20T11:40:12;8.50;99.90
21271;DHT22;10795;50.796;3.860;2022-11-20T11:42:46;8.50;99.90
21271;DHT22;10795;50.796;3.860;2022-11-20T11:45:15;8.50;99.90
21271;DHT22;10795;50.796;3.860;2022-11-20T11:53:19;8.20;99.90
21271;DHT22;10795;50.796;3.860;2022-11-20T11:56:07;8.30;99.90
21271;DHT22;10795;50.796;3.860;2022-11-20T11:58:11;8.30;99.90
21271;DHT22;10795;50.796;3.860;2022-11-20T12:00:37;8.20;99.90
21271;DHT22;10795;50.796;3.860;2022-11-20T12:03:08;8.20;99.90
21271;DHT22;10795;50.796;3.860;2022-11-20T12:05:44;8.30;99.90
21271;DHT22;10795;50.796;3.860;2022-11-20T12:10:45;8.30;99.90
21271;DHT22;10795;50.796;3.860;2022-11-20T12:13:34;8.40;99.90
21271;DHT22;10795;50.796;3.860;2022-11-20T12:16:02;8.50;99.90
21271;DHT22;10795;50.796;3.860;2022-11-20T12:18:28;8.30;99.90
21271;DHT22;10795;50.796;3.860;2022-11-20T12:21:02;8.30;99.90
21271;DHT22;10795;50.796;3.860;2022-11-20T12:26:06;8.10;99.90
21271;DHT22;10795;50.796;3.860;2022-11-20T12:36:17;8.20;99.90
21271;DHT22;10795;50.796;3.860;2022-11-20T12:49:56;8.20;99.90
21271;DHT22;10795;50.796;3.860;2022-11-20T12:52:32;8.30;99.90
21271;DHT22;10795;50.796;3.860;2022-11-20T12:57:56;8.30;99.90
21271;DHT22;10795;50.796;3.860;2022-11-20T13:00:22;8.30;99.90
21271;DHT22;10795;50.796;3.860;2022-11-20T13:08:18;8.30;99.90
21271;DHT22;10795;50.796;3.860;2022-11-20T13:13:31;8.40;99.90
21271;DHT22;10795;50.796;3.860;2022-11-20T13:16:00;8.60;99.90
21271;DHT22;10795;50.796;3.860;2022-11-20T13:18:28;8.40;99.90
21271;DHT22;10795;50.796;3.860;2022-11-20T13:20:59;8.50;99.90
21271;DHT22;10795;50.796;3.860;2022-11-20T13:23:25;8.40;99.90
21271;DHT22;10795;50.796;3.860;2022-11-20T13:25:52;8.50;99.90
21271;DHT22;10795;50.796;3.860;2022-11-20T13:28:28;8.50;99.90
21271;DHT22;10795;50.796;3.860;2022-11-20T13:30:56;8.40;99.90
21271;DHT22;10795;50.796;3.860;2022-11-20T13:35:55;8.40;99.90
21271;DHT22;10795;50.796;3.860;2022-11-20T13:38:21;8.30;99.90
21271;DHT22;10795;50.796;3.860;2022-11-20T13:45:57;8.30;99.90
21271;DHT22;10795;50.796;3.860;2022-11-20T13:48:24;8.30;99.90
21271;DHT22;10795;50.796;3.860;2022-11-20T13:50:55;8.20;99.90
21271;DHT22;10795;50.796;3.860;2022-11-20T13:56:01;8.20;99.90
21271;DHT22;10795;50.796;3.860;2022-11-20T14:01:15;8.20;99.90
21271;DHT22;10795;50.796;3.860;2022-11-20T14:03:41;8.40;99.90
21271;DHT22;10795;50.796;3.860;2022-11-20T14:06:11;8.50;99.90
21271;DHT22;10795;50.796;3.860;2022-11-20T14:08:39;8.40;99.90
21271;DHT22;10795;50.796;3.860;2022-11-20T14:11:12;8.40;99.90
21271;DHT22;10795;50.796;3.860;2022-11-20T14:13:39;8.30;99.90
21271;DHT22;10795;50.796;3.860;2022-11-20T14:16:04;8.30;99.90
21271;DHT22;10795;50.796;3.860;2022-11-20T14:18:30;8.40;99.90
21271;DHT22;10795;50.796;3.860;2022-11-20T14:20:56;8.40;99.90
21271;DHT22;10795;50.796;3.860;2022-11-20T14:23:28;8.40;99.90
21271;DHT22;10795;50.796;3.860;2022-11-20T14:25:54;8.50;99.90
21271;DHT22;10795;50.796;3.860;2022-11-20T14:28:27;8.60;99.90
21271;DHT22;10795;50.796;3.860;2022-11-20T14:30:53;8.50;99.90
21271;DHT22;10795;50.796;3.860;2022-11-20T14:33:19;8.60;99.90
21271;DHT22;10795;50.796;3.860;2022-11-20T14:35:46;8.60;99.90
21271;DHT22;10795;50.796;3.860;2022-11-20T14:38:13;8.70;99.90
21271;DHT22;10795;50.796;3.860;2022-11-20T14:40:39;8.70;99.90
21271;DHT22;10795;50.796;3.860;2022-11-20T14:43:24;8.70;99.90
21271;DHT22;10795;50.796;3.860;2022-11-20T14:46:00;8.90;99.90
21271;DHT22;10795;50.796;3.860;2022-11-20T14:48:30;9.00;99.90
21271;DHT22;10795;50.796;3.860;2022-11-20T14:50:56;9.10;99.90
21271;DHT22;10795;50.796;3.860;2022-11-20T14:53:23;9.10;99.90
21271;DHT22;10795;50.796;3.860;2022-11-20T14:55:54;9.00;99.90
21271;DHT22;10795;50.796;3.860;2022-11-20T14:58:24;9.20;99.90
21271;DHT22;10795;50.796;3.860;2022-11-20T15:00:57;9.20;99.90
21271;DHT22;10795;50.796;3.860;2022-11-20T15:03:23;9.20;99.90
21271;DHT22;10795;50.796;3.860;2022-11-20T15:05:49;9.20;99.90
21271;DHT22;10795;50.796;3.860;2022-11-20T15:08:15;9.20;99.90
21271;DHT22;10795;50.796;3.860;2022-11-20T15:10:45;9.30;99.90
21271;DHT22;10795;50.796;3.860;2022-11-20T15:13:11;9.40;99.90
21271;DHT22;10795;50.796;3.860;2022-11-20T15:15:48;9.40;99.90
21271;DHT22;10795;50.796;3.860;2022-11-20T15:18:15;9.40;99.90
21271;DHT22;10795;50.796;3.860;2022-11-20T15:20:41;9.50;99.90
21271;DHT22;10795;50.796;3.860;2022-11-20T15:23:11;9.50;99.90
21271;DHT22;10795;50.796;3.860;2022-11-20T15:25:37;9.60;99.90
21271;DHT22;10795;50.796;3.860;2022-11-20T15:28:04;9.70;99.90
21271;DHT22;10795;50.796;3.860;2022-11-20T15:30:30;9.60;99.90
21271;DHT22;10795;50.796;3.860;2022-11-20T15:32:56;9.70;99.90
21271;DHT22;10795;50.796;3.860;2022-11-20T15:35:21;9.70;99.90
21271;DHT22;10795;50.796;3.860;2022-11-20T15:37:47;9.60;99.90
21271;DHT22;10795;50.796;3.860;2022-11-20T15:40:13;9.70;99.90
21271;DHT22;10795;50.796;3.860;2022-11-20T15:42:38;9.70;99.90
21271;DHT22;10795;50.796;3.860;2022-11-20T15:45:24;9.60;99.90
21271;DHT22;10795;50.796;3.860;2022-11-20T15:47:50;9.70;99.90
21271;DHT22;10795;50.796;3.860;2022-11-20T15:50:15;9.70;99.90
21271;DHT22;10795;50.796;3.860;2022-11-20T15:52:42;9.60;99.90
21271;DHT22;10795;50.796;3.860;2022-11-20T15:55:09;9.50;99.90
21271;DHT22;10795;50.796;3.860;2022-11-20T15:57:35;9.50;99.90
21271;DHT22;10795;50.796;3.860;2022-11-20T16:00:00;9.70;99.90
21271;DHT22;10795;50.796;3.860;2022-11-20T16:02:26;9.70;99.90
21271;DHT22;10795;50.796;3.860;2022-11-20T16:04:51;9.50;99.90
21271;DHT22;10795;50.796;3.860;2022-11-20T16:07:17;9.60;99.90
21271;DHT22;10795;50.796;3.860;2022-11-20T16:09:43;9.50;99.90
21271;DHT22;10795;50.796;3.860;2022-11-20T16:12:09;9.30;99.90
21271;DHT22;10795;50.796;3.860;2022-11-20T16:14:55;9.50;99.90
21271;DHT22;10795;50.796;3.860;2022-11-20T16:17:39;9.50;99.90
21271;DHT22;10795;50.796;3.860;2022-11-20T16:20:10;9.50;99.90
21271;DHT22;10795;50.796;3.860;2022-11-20T16:22:35;9.40;99.90
21271;DHT22;10795;50.796;3.860;2022-11-20T16:25:01;9.40;99.90
21271;DHT22;10795;50.796;3.860;2022-11-20T16:27:27;9.40;99.90
21271;DHT22;10795;50.796;3.860;2022-11-20T16:29:52;9.40;99.90
21271;DHT22;10795;50.796;3.860;2022-11-20T16:32:18;9.30;99.90
21271;DHT22;10795;50.796;3.860;2022-11-20T16:34:43;9.30;99.90
21271;DHT22;10795;50.796;3.860;2022-11-20T16:37:09;9.20;99.90
21271;DHT22;10795;50.796;3.860;2022-11-20T16:39:35;9.30;99.90
21271;DHT22;10795;50.796;3.860;2022-11-20T16:42:03;9.00;99.90
21271;DHT22;10795;50.796;3.860;2022-11-20T16:44:28;8.90;99.90
21271;DHT22;10795;50.796;3.860;2022-11-20T16:46:54;8.70;99.90
21271;DHT22;10795;50.796;3.860;2022-11-20T16:49:20;8.70;99.90
21271;DHT22;10795;50.796;3.860;2022-11-20T16:51:45;8.60;99.90
21271;DHT22;10795;50.796;3.860;2022-11-20T16:54:11;8.70;99.90
21271;DHT22;10795;50.796;3.860;2022-11-20T16:56:37;8.60;99.90
21271;DHT22;10795;50.796;3.860;2022-11-20T16:59:03;8.60;99.90
21271;DHT22;10795;50.796;3.860;2022-11-20T17:01:29;8.60;99.90
21271;DHT22;10795;50.796;3.860;2022-11-20T17:04:05;8.50;99.90
21271;DHT22;10795;50.796;3.860;2022-11-20T17:06:32;8.50;99.90
21271;DHT22;10795;50.796;3.860;2022-11-20T17:08:58;8.40;99.90
21271;DHT22;10795;50.796;3.860;2022-11-20T17:11:23;8.40;99.90
21271;DHT22;10795;50.796;3.860;2022-11-20T17:13:49;8.40;99.90
21271;DHT22;10795;50.796;3.860;2022-11-20T17:16:19;8.30;99.90
21271;DHT22;10795;50.796;3.860;2022-11-20T17:18:45;8.30;99.90
21271;DHT22;10795;50.796;3.860;2022-11-20T17:21:11;8.30;99.90
21271;DHT22;10795;50.796;3.860;2022-11-20T17:23:38;8.20;99.90
21271;DHT22;10795;50.796;3.860;2022-11-20T17:26:05;8.20;99.90
21271;DHT22;10795;50.796;3.860;2022-11-20T17:28:31;8.20;99.90
21271;DHT22;10795;50.796;3.860;2022-11-20T17:31:00;8.20;99.90
21271;DHT22;10795;50.796;3.860;2022-11-20T17:33:26;8.20;99.90
21271;DHT22;10795;50.796;3.860;2022-11-20T17:35:52;8.30;99.90
21271;DHT22;10795;50.796;3.860;2022-11-20T17:38:18;8.30;99.90
21271;DHT22;10795;50.796;3.860;2022-11-20T17:40:43;8.40;99.90
21271;DHT22;10795;50.796;3.860;2022-11-20T17:43:10;8.40;99.90